sensor_id;sensor_type;location;lat;lon;timestamp;pressure;altitude;pressure_sealevel;temperature;humidity
25610;BME280;13479;49.044;8.716;2023-03-24T05:01:15;98045.38;;;14.35;71.56
25610;BME280;13479;49.044;8.716;2023-03-24T05:03:41;98058.63;;;14.29;72.19
25610;BME280;13479;49.044;8.716;2023-03-24T05:06:06;98070.28;;;14.13;73.51
25610;BME280;13479;49.044;8.716;2023-03-24T05:08:32;98085.81;;;14.09;74.67
25610;BME280;13479;49.044;8.716;2023-03-24T05:10:57;98104.91;;;13.98;75.46
25610;BME280;13479;49.044;8.716;2023-03-24T05:13:22;98117.28;;;13.90;76.42
25610;BME280;13479;49.044;8.716;2023-03-24T05:15:48;98127.34;;;13.80;77.59
25610;BME280;13479;49.044;8.716;2023-03-24T05:18:13;98132.06;;;13.70;78.31
25610;BME280;13479;49.044;8.716;2023-03-24T05:20:39;98142.09;;;13.68;78.97
25610;BME280;13479;49.044;8.716;2023-03-24T05:23:04;98145.75;;;13.67;79.13
25610;BME280;13479;49.044;8.716;2023-03-24T05:25:29;98141.94;;;13.61;80.24
25610;BME280;13479;49.044;8.716;2023-03-24T05:27:55;98137.16;;;13.48;81.31
25610;BME280;13479;49.044;8.716;2023-03-24T05:30:20;98131.28;;;13.53;81.59
25610;BME280;13479;49.044;8.716;2023-03-24T05:32:46;98137.84;;;13.42;82.67
25610;BME280;13479;49.044;8.716;2023-03-24T05:35:11;98131.47;;;13.51;83.04
25610;BME280;13479;49.044;8.716;2023-03-24T05:37:36;98130.00;;;13.32;83.91
25610;BME280;13479;49.044;8.716;2023-03-24T05:40:02;98132.16;;;13.37;84.39
25610;BME280;13479;49.044;8.716;2023-03-24T05:42:27;98125.84;;;13.38;84.72
25610;BME280;13479;49.044;8.716;2023-03-24T05:44:52;98131.47;;;13.51;84.57
25610;BME280;13479;49.044;8.716;2023-03-24T05:47:17;98115.81;;;13.48;84.62
25610;BME280;13479;49.044;8.716;2023-03-24T05:49:47;98112.00;;;13.51;84.79
25610;BME280;13479;49.044;8.716;2023-03-24T05:52:12;98112.78;;;13.59;84.81
25610;BME280;13479;49.044;8.716;2023-03-24T05:54:40;98105.63;;;13.60;85.11
25610;BME280;13479;49.044;8.716;2023-03-24T05:57:05;98106.75;;;13.66;84.67
25610;BME280;13479;49.044;8.716;2023-03-24T05:59:33;98118.41;;;13.96;83.29
25610;BME280;13479;49.044;8.716;2023-03-24T06:01:59;98119.78;;;13.92;82.76
25610;BME280;13479;49.044;8.716;2023-03-24T06:04:24;98097.47;;;13.85;83.55
25610;BME280;13479;49.044;8.716;2023-03-24T06:06:54;98087.91;;;13.90;83.65
25610;BME280;13479;49.044;8.716;2023-03-24T06:09:20;98091.03;;;14.02;83.15
25610;BME280;13479;49.044;8.716;2023-03-24T06:11:46;98092.63;;;14.12;81.96
25610;BME280;13479;49.044;8.716;2023-03-24T06:14:11;98086.28;;;14.13;81.87
25610;BME280;13479;49.044;8.716;2023-03-24T06:16:36;98044.19;;;14.00;83.24
25610;BME280;13479;49.044;8.716;2023-03-24T06:19:05;98061.31;;;14.05;82.95
25610;BME280;13479;49.044;8.716;2023-03-24T06:21:34;98066.81;;;14.04;82.83
25610;BME280;13479;49.044;8.716;2023-03-24T06:23:59;98065.22;;;13.95;83.74
25610;BME280;13479;49.044;8.716;2023-03-24T06:26:25;98075.13;;;14.09;83.17
25610;BME280;13479;49.044;8.716;2023-03-24T06:28:50;98086.28;;;14.13;82.97
25610;BME280;13479;49.044;8.716;2023-03-24T06:31:17;98111.22;;;14.28;82.28
25610;BME280;13479;49.044;8.716;2023-03-24T06:33:45;98111.66;;;14.32;81.62
25610;BME280;13479;49.044;8.716;2023-03-24T06:36:12;98100.66;;;14.35;81.86
25610;BME280;13479;49.044;8.716;2023-03-24T06:38:38;98097.59;;;14.38;81.38
25610;BME280;13479;49.044;8.716;2023-03-24T06:41:03;98114.56;;;14.45;80.45
25610;BME280;13479;49.044;8.716;2023-03-24T06:43:30;98106.72;;;14.44;80.64
25610;BME280;13479;49.044;8.716;2023-03-24T06:45:55;98109.84;;;14.47;79.56
25610;BME280;13479;49.044;8.716;2023-03-24T06:48:21;98079.63;;;14.32;80.46
25610;BME280;13479;49.044;8.716;2023-03-24T06:50:46;98089.53;;;14.46;80.04
25610;BME280;13479;49.044;8.716;2023-03-24T06:53:11;98108.16;;;14.55;78.95
25610;BME280;13479;49.044;8.716;2023-03-24T06:55:37;98093.84;;;14.47;78.91
25610;BME280;13479;49.044;8.716;2023-03-24T06:58:02;98061.66;;;14.26;80.44
25610;BME280;13479;49.044;8.716;2023-03-24T07:00:27;98066.50;;;14.45;79.68
25610;BME280;13479;49.044;8.716;2023-03-24T07:02:54;98089.59;;;14.38;80.17
25610;BME280;13479;49.044;8.716;2023-03-24T07:05:20;98112.34;;;14.34;78.85
25610;BME280;13479;49.044;8.716;2023-03-24T07:07:46;98101.94;;;14.39;79.96
25610;BME280;13479;49.044;8.716;2023-03-24T07:10:12;98077.72;;;14.41;80.03
25610;BME280;13479;49.044;8.716;2023-03-24T07:12:38;98075.53;;;14.44;80.42
25610;BME280;13479;49.044;8.716;2023-03-24T07:15:04;98113.03;;;14.51;79.23
25610;BME280;13479;49.044;8.716;2023-03-24T07:17:31;98112.47;;;14.56;79.44
25610;BME280;13479;49.044;8.716;2023-03-24T07:19:56;98111.53;;;14.48;79.39
25610;BME280;13479;49.044;8.716;2023-03-24T07:22:21;98111.09;;;14.60;79.02
25610;BME280;13479;49.044;8.716;2023-03-24T07:24:47;98128.50;;;14.56;78.97
25610;BME280;13479;49.044;8.716;2023-03-24T07:27:12;98098.16;;;14.48;79.34
25610;BME280;13479;49.044;8.716;2023-03-24T07:29:37;98085.78;;;14.56;79.46
25610;BME280;13479;49.044;8.716;2023-03-24T07:32:02;98106.41;;;14.62;78.99
25610;BME280;13479;49.044;8.716;2023-03-24T07:34:28;98096.34;;;14.49;79.93
25610;BME280;13479;49.044;8.716;2023-03-24T07:36:53;98122.78;;;14.59;78.38
25610;BME280;13479;49.044;8.716;2023-03-24T07:39:19;98108.56;;;14.43;79.55
25610;BME280;13479;49.044;8.716;2023-03-24T07:41:45;98085.19;;;14.45;79.34
25610;BME280;13479;49.044;8.716;2023-03-24T07:44:11;98098.91;;;14.42;79.54
25610;BME280;13479;49.044;8.716;2023-03-24T07:46:36;98116.16;;;14.55;79.30
25610;BME280;13479;49.044;8.716;2023-03-24T07:49:01;98090.91;;;14.42;79.51
25610;BME280;13479;49.044;8.716;2023-03-24T07:51:27;98086.88;;;14.46;79.51
25610;BME280;13479;49.044;8.716;2023-03-24T07:53:53;98110.72;;;14.48;78.75
25610;BME280;13479;49.044;8.716;2023-03-24T07:56:18;98080.28;;;14.34;79.44
25610;BME280;13479;49.044;8.716;2023-03-24T07:58:43;98060.50;;;14.43;80.05
25610;BME280;13479;49.044;8.716;2023-03-24T08:01:09;98081.44;;;14.55;79.09
25610;BME280;13479;49.044;8.716;2023-03-24T08:03:35;98105.38;;;14.86;77.50
25610;BME280;13479;49.044;8.716;2023-03-24T08:06:02;98071.28;;;14.73;76.89
25610;BME280;13479;49.044;8.716;2023-03-24T08:08:27;98018.25;;;14.62;77.37
25610;BME280;13479;49.044;8.716;2023-03-24T08:10:52;98012.03;;;15.00;75.43
25610;BME280;13479;49.044;8.716;2023-03-24T08:13:17;97994.09;;;14.78;76.61
25610;BME280;13479;49.044;8.716;2023-03-24T08:15:43;98005.88;;;14.69;77.42
25610;BME280;13479;49.044;8.716;2023-03-24T08:18:08;97995.25;;;14.76;78.44
25610;BME280;13479;49.044;8.716;2023-03-24T08:20:33;97985.78;;;14.88;77.96
25610;BME280;13479;49.044;8.716;2023-03-24T08:22:59;98037.38;;;14.89;77.20
25610;BME280;13479;49.044;8.716;2023-03-24T08:25:25;98061.88;;;15.07;76.57
25610;BME280;13479;49.044;8.716;2023-03-24T08:27:51;98056.53;;;15.07;76.39
25610;BME280;13479;49.044;8.716;2023-03-24T08:30:23;98070.44;;;15.18;76.09
25610;BME280;13479;49.044;8.716;2023-03-24T08:32:54;98085.22;;;15.13;75.27
25610;BME280;13479;49.044;8.716;2023-03-24T08:35:24;98059.75;;;15.33;75.56
25610;BME280;13479;49.044;8.716;2023-03-24T08:37:50;98066.91;;;15.47;75.25
25610;BME280;13479;49.044;8.716;2023-03-24T08:40:18;98060.44;;;15.56;75.16
25610;BME280;13479;49.044;8.716;2023-03-24T08:42:53;98089.28;;;15.76;72.92
25610;BME280;13479;49.044;8.716;2023-03-24T08:45:21;98100.41;;;15.95;71.09
25610;BME280;13479;49.044;8.716;2023-03-24T08:47:49;98081.47;;;15.96;71.00
25610;BME280;13479;49.044;8.716;2023-03-24T08:50:16;98063.88;;;15.87;70.83
25610;BME280;13479;49.044;8.716;2023-03-24T08:52:42;98073.94;;;15.85;70.54
25610;BME280;13479;49.044;8.716;2023-03-24T08:55:08;98070.81;;;15.81;69.74
25610;BME280;13479;49.044;8.716;2023-03-24T08:57:34;98031.16;;;15.70;70.24
25610;BME280;13479;49.044;8.716;2023-03-24T09:00:00;98036.31;;;15.71;69.97
25610;BME280;13479;49.044;8.716;2023-03-24T09:02:25;98037.78;;;15.89;68.92
25610;BME280;13479;49.044;8.716;2023-03-24T09:04:51;98062.31;;;16.14;67.57
25610;BME280;13479;49.044;8.716;2023-03-24T09:07:19;98055.41;;;16.27;67.00
25610;BME280;13479;49.044;8.716;2023-03-24T09:09:44;98042.72;;;16.64;66.69
25610;BME280;13479;49.044;8.716;2023-03-24T09:12:09;98058.53;;;16.87;65.53
25610;BME280;13479;49.044;8.716;2023-03-24T09:14:35;98064.75;;;16.88;64.07
25610;BME280;13479;49.044;8.716;2023-03-24T09:17:00;98030.50;;;16.83;64.12
25610;BME280;13479;49.044;8.716;2023-03-24T09:19:25;98040.72;;;16.73;63.56
25610;BME280;13479;49.044;8.716;2023-03-24T09:21:50;98025.47;;;16.45;64.22
25610;BME280;13479;49.044;8.716;2023-03-24T09:24:16;98021.53;;;16.41;63.41
25610;BME280;13479;49.044;8.716;2023-03-24T09:26:41;98000.25;;;16.32;64.40
25610;BME280;13479;49.044;8.716;2023-03-24T09:29:06;97956.91;;;16.22;64.73
25610;BME280;13479;49.044;8.716;2023-03-24T09:31:32;97951.25;;;16.10;65.34
25610;BME280;13479;49.044;8.716;2023-03-24T09:33:58;97926.25;;;16.25;65.37
25610;BME280;13479;49.044;8.716;2023-03-24T09:36:25;97969.91;;;16.54;64.30
25610;BME280;13479;49.044;8.716;2023-03-24T09:38:51;98011.38;;;16.64;64.20
25610;BME280;13479;49.044;8.716;2023-03-24T09:41:18;98045.63;;;16.97;63.40
25610;BME280;13479;49.044;8.716;2023-03-24T09:44:12;98056.69;;;17.16;62.09
25610;BME280;13479;49.044;8.716;2023-03-24T09:46:46;98029.28;;;17.21;61.85
25610;BME280;13479;49.044;8.716;2023-03-24T09:49:16;98046.28;;;17.48;60.51
25610;BME280;13479;49.044;8.716;2023-03-24T09:51:49;98027.94;;;17.52;60.35
25610;BME280;13479;49.044;8.716;2023-03-24T09:57:04;98007.13;;;17.74;60.29
25610;BME280;13479;49.044;8.716;2023-03-24T09:59:37;98000.56;;;17.97;59.44
25610;BME280;13479;49.044;8.716;2023-03-24T10:02:11;98013.00;;;18.11;58.63
25610;BME280;13479;49.044;8.716;2023-03-24T10:04:38;98044.22;;;18.26;56.81
25610;BME280;13479;49.044;8.716;2023-03-24T10:07:17;98005.94;;;17.97;57.19
25610;BME280;13479;49.044;8.716;2023-03-24T10:09:52;97982.41;;;17.99;57.30
25610;BME280;13479;49.044;8.716;2023-03-24T10:12:36;98009.91;;;18.14;56.33
25610;BME280;13479;49.044;8.716;2023-03-24T10:17:50;98012.59;;;18.21;55.75
25610;BME280;13479;49.044;8.716;2023-03-24T10:26:25;98016.22;;;17.66;55.79
25610;BME280;13479;49.044;8.716;2023-03-24T10:29:03;97946.16;;;17.27;57.62
25610;BME280;13479;49.044;8.716;2023-03-24T10:31:34;97943.47;;;17.34;56.92
25610;BME280;13479;49.044;8.716;2023-03-24T10:34:01;97944.78;;;17.58;56.11
25610;BME280;13479;49.044;8.716;2023-03-24T10:36:27;98000.13;;;17.86;55.67
25610;BME280;13479;49.044;8.716;2023-03-24T10:38:53;98021.44;;;17.95;55.38
25610;BME280;13479;49.044;8.716;2023-03-24T10:41:24;98004.28;;;17.82;55.88
25610;BME280;13479;49.044;8.716;2023-03-24T10:43:53;98032.00;;;18.03;54.61
25610;BME280;13479;49.044;8.716;2023-03-24T10:46:23;98006.75;;;17.84;55.12
25610;BME280;13479;49.044;8.716;2023-03-24T10:48:50;97996.38;;;17.74;55.42
25610;BME280;13479;49.044;8.716;2023-03-24T10:51:20;98016.84;;;17.75;55.31
25610;BME280;13479;49.044;8.716;2023-03-24T10:53:47;98030.28;;;17.95;55.19
25610;BME280;13479;49.044;8.716;2023-03-24T10:56:45;98043.97;;;18.20;54.12
25610;BME280;13479;49.044;8.716;2023-03-24T10:59:18;98048.75;;;18.59;53.29
25610;BME280;13479;49.044;8.716;2023-03-24T11:01:44;98062.97;;;19.06;51.54
25610;BME280;13479;49.044;8.716;2023-03-24T11:04:13;98063.13;;;19.25;51.64
25610;BME280;13479;49.044;8.716;2023-03-24T11:07:34;98059.50;;;19.44;50.63
25610;BME280;13479;49.044;8.716;2023-03-24T11:10:03;98076.53;;;19.38;49.61
25610;BME280;13479;49.044;8.716;2023-03-24T11:12:30;98068.53;;;19.05;50.40
25610;BME280;13479;49.044;8.716;2023-03-24T11:15:02;98050.72;;;19.17;50.31
25610;BME280;13479;49.044;8.716;2023-03-24T11:17:37;98053.78;;;19.27;50.40
25610;BME280;13479;49.044;8.716;2023-03-24T11:20:02;98083.78;;;19.31;48.93
25610;BME280;13479;49.044;8.716;2023-03-24T11:22:32;98055.69;;;19.72;49.18
25610;BME280;13479;49.044;8.716;2023-03-24T11:24:57;98089.84;;;20.11;48.53
25610;BME280;13479;49.044;8.716;2023-03-24T11:27:23;98093.84;;;20.01;48.43
25610;BME280;13479;49.044;8.716;2023-03-24T11:29:51;98089.34;;;19.95;48.88
25610;BME280;13479;49.044;8.716;2023-03-24T11:32:22;98092.84;;;19.96;48.61
25610;BME280;13479;49.044;8.716;2023-03-24T11:34:58;98099.16;;;20.47;48.02
25610;BME280;13479;49.044;8.716;2023-03-24T11:37:28;98108.63;;;20.56;47.91
25610;BME280;13479;49.044;8.716;2023-03-24T11:40:23;98120.81;;;20.65;47.58
25610;BME280;13479;49.044;8.716;2023-03-24T11:42:56;98091.78;;;20.35;48.46
25610;BME280;13479;49.044;8.716;2023-03-24T11:45:25;98077.22;;;20.11;48.95
25610;BME280;13479;49.044;8.716;2023-03-24T11:47:57;98050.06;;;19.74;49.53
25610;BME280;13479;49.044;8.716;2023-03-24T11:50:27;98026.81;;;19.48;49.89
25610;BME280;13479;49.044;8.716;2023-03-24T11:53:00;97988.56;;;19.32;50.37
25610;BME280;13479;49.044;8.716;2023-03-24T11:55:48;97993.41;;;19.17;50.46
25610;BME280;13479;49.044;8.716;2023-03-24T12:01:22;97953.16;;;19.35;50.32
25610;BME280;13479;49.044;8.716;2023-03-24T12:04:13;97963.91;;;19.42;50.50
25610;BME280;13479;49.044;8.716;2023-03-24T12:10:04;97925.13;;;19.18;52.04
25610;BME280;13479;49.044;8.716;2023-03-24T12:12:52;97928.50;;;18.93;53.43
25610;BME280;13479;49.044;8.716;2023-03-24T12:15:50;97999.13;;;18.41;54.50
25610;BME280;13479;49.044;8.716;2023-03-24T12:26:33;97972.34;;;15.33;60.72
25610;BME280;13479;49.044;8.716;2023-03-24T12:29:17;97979.16;;;14.69;62.27
25610;BME280;13479;49.044;8.716;2023-03-24T12:32:06;97990.72;;;14.46;63.11
25610;BME280;13479;49.044;8.716;2023-03-24T12:34:59;98000.91;;;14.28;65.66
25610;BME280;13479;49.044;8.716;2023-03-24T12:42:46;98031.38;;;13.72;67.55
25610;BME280;13479;49.044;8.716;2023-03-24T12:45:35;98039.44;;;13.64;68.43
25610;BME280;13479;49.044;8.716;2023-03-24T12:48:33;98056.47;;;13.54;68.95
25610;BME280;13479;49.044;8.716;2023-03-24T12:51:32;98073.38;;;13.30;69.84
25610;BME280;13479;49.044;8.716;2023-03-24T12:57:04;98098.88;;;13.24;70.38
25610;BME280;13479;49.044;8.716;2023-03-24T12:59:37;98106.31;;;12.89;72.36
25610;BME280;13479;49.044;8.716;2023-03-24T13:02:21;98116.31;;;12.87;72.96
25610;BME280;13479;49.044;8.716;2023-03-24T13:04:52;98115.47;;;12.87;72.98
25610;BME280;13479;49.044;8.716;2023-03-24T13:07:22;98122.16;;;12.82;72.63
25610;BME280;13479;49.044;8.716;2023-03-24T13:10:00;98142.97;;;12.87;73.25
25610;BME280;13479;49.044;8.716;2023-03-24T13:12:51;98164.59;;;12.92;72.09
25610;BME280;13479;49.044;8.716;2023-03-24T13:18:26;98173.88;;;13.05;71.42
25610;BME280;13479;49.044;8.716;2023-03-24T13:20:59;98169.41;;;13.05;71.72
25610;BME280;13479;49.044;8.716;2023-03-24T13:26:36;98172.66;;;13.32;71.59
25610;BME280;13479;49.044;8.716;2023-03-24T13:32:04;98211.72;;;13.73;70.19
25610;BME280;13479;49.044;8.716;2023-03-24T13:34:36;98241.50;;;14.25;67.78
25610;BME280;13479;49.044;8.716;2023-03-24T13:37:06;98240.63;;;14.41;67.29
25610;BME280;13479;49.044;8.716;2023-03-24T13:39:34;98251.19;;;14.57;65.59
25610;BME280;13479;49.044;8.716;2023-03-24T13:42:00;98225.41;;;14.73;65.66
25610;BME280;13479;49.044;8.716;2023-03-24T13:44:35;98234.69;;;15.00;63.78
25610;BME280;13479;49.044;8.716;2023-03-24T13:49:31;98214.47;;;15.21;62.68
25610;BME280;13479;49.044;8.716;2023-03-24T13:51:56;98179.72;;;15.51;62.69
25610;BME280;13479;49.044;8.716;2023-03-24T13:54:25;98192.06;;;15.52;61.52
25610;BME280;13479;49.044;8.716;2023-03-24T13:56:54;98188.94;;;15.33;61.17
25610;BME280;13479;49.044;8.716;2023-03-24T13:59:41;98155.81;;;15.49;61.50
25610;BME280;13479;49.044;8.716;2023-03-24T14:02:39;98159.78;;;15.68;60.92
25610;BME280;13479;49.044;8.716;2023-03-24T14:05:32;98162.63;;;15.82;60.98
25610;BME280;13479;49.044;8.716;2023-03-24T14:08:13;98188.56;;;15.66;59.88
25610;BME280;13479;49.044;8.716;2023-03-24T14:15:50;98117.00;;;15.38;62.08
25610;BME280;13479;49.044;8.716;2023-03-24T14:23:45;98102.34;;;15.49;61.88
25610;BME280;13479;49.044;8.716;2023-03-24T14:26:28;98073.91;;;15.63;62.13
25610;BME280;13479;49.044;8.716;2023-03-24T14:28:58;98079.97;;;15.72;61.98
25610;BME280;13479;49.044;8.716;2023-03-24T14:31:29;98101.44;;;15.94;62.06
25610;BME280;13479;49.044;8.716;2023-03-24T14:38:56;98092.59;;;16.15;62.13
25610;BME280;13479;49.044;8.716;2023-03-24T14:41:31;98117.00;;;16.27;61.13
25610;BME280;13479;49.044;8.716;2023-03-24T14:44:03;98119.41;;;16.21;61.63
25610;BME280;13479;49.044;8.716;2023-03-24T14:46:45;98126.63;;;16.21;61.36
25610;BME280;13479;49.044;8.716;2023-03-24T14:49:29;98121.41;;;16.13;61.74
25610;BME280;13479;49.044;8.716;2023-03-24T14:52:00;98096.59;;;16.26;61.92
25610;BME280;13479;49.044;8.716;2023-03-24T14:54:33;98125.75;;;16.35;61.01
25610;BME280;13479;49.044;8.716;2023-03-24T14:57:02;98119.53;;;16.35;60.73
25610;BME280;13479;49.044;8.716;2023-03-24T14:59:38;98138.94;;;16.37;60.39
25610;BME280;13479;49.044;8.716;2023-03-24T15:02:35;98149.72;;;16.44;59.39
25610;BME280;13479;49.044;8.716;2023-03-24T15:08:14;98148.31;;;16.26;58.50
25610;BME280;13479;49.044;8.716;2023-03-24T15:11:01;98121.59;;;16.33;58.91
25610;BME280;13479;49.044;8.716;2023-03-24T15:13:42;98121.66;;;16.18;58.72
25610;BME280;13479;49.044;8.716;2023-03-24T15:19:07;98114.63;;;16.17;58.74
25610;BME280;13479;49.044;8.716;2023-03-24T15:21:45;98083.66;;;16.08;59.64
25610;BME280;13479;49.044;8.716;2023-03-24T15:26:45;98106.00;;;16.15;58.29
25610;BME280;13479;49.044;8.716;2023-03-24T15:29:10;98093.09;;;16.03;58.79
25610;BME280;13479;49.044;8.716;2023-03-24T15:31:36;98061.56;;;15.84;59.43
25610;BME280;13479;49.044;8.716;2023-03-24T15:34:07;98047.56;;;15.82;58.99
25610;BME280;13479;49.044;8.716;2023-03-24T15:36:37;98060.50;;;16.00;58.97
25610;BME280;13479;49.044;8.716;2023-03-24T15:39:18;98068.38;;;16.01;58.71
25610;BME280;13479;49.044;8.716;2023-03-24T15:41:45;98070.41;;;15.99;58.99
25610;BME280;13479;49.044;8.716;2023-03-24T15:44:16;98070.97;;;15.95;59.00
25610;BME280;13479;49.044;8.716;2023-03-24T15:46:43;98055.94;;;15.94;59.33
25610;BME280;13479;49.044;8.716;2023-03-24T15:49:23;98028.00;;;15.81;59.54
25610;BME280;13479;49.044;8.716;2023-03-24T15:51:55;98009.63;;;15.78;60.04
25610;BME280;13479;49.044;8.716;2023-03-24T15:54:39;97984.47;;;15.72;60.09
25610;BME280;13479;49.044;8.716;2023-03-24T15:57:22;97968.47;;;15.36;60.75
25610;BME280;13479;49.044;8.716;2023-03-24T16:02:34;97919.59;;;15.27;61.51
25610;BME280;13479;49.044;8.716;2023-03-24T16:05:10;97901.66;;;15.21;62.07
25610;BME280;13479;49.044;8.716;2023-03-24T16:07:37;97908.41;;;15.17;62.92
25610;BME280;13479;49.044;8.716;2023-03-24T16:10:06;97916.41;;;15.17;62.58
25610;BME280;13479;49.044;8.716;2023-03-24T16:12:34;97922.53;;;15.10;62.54
25610;BME280;13479;49.044;8.716;2023-03-24T16:14:59;97909.53;;;15.07;63.14
25610;BME280;13479;49.044;8.716;2023-03-24T16:17:25;97910.06;;;15.18;62.49
25610;BME280;13479;49.044;8.716;2023-03-24T16:19:50;97914.31;;;15.12;62.80
25610;BME280;13479;49.044;8.716;2023-03-24T16:22:15;97931.13;;;15.06;63.13
25610;BME280;13479;49.044;8.716;2023-03-24T16:24:41;97930.28;;;15.05;62.78
25610;BME280;13479;49.044;8.716;2023-03-24T16:27:06;97933.66;;;15.14;62.70
25610;BME280;13479;49.044;8.716;2023-03-24T16:29:31;97955.50;;;15.18;62.61
25610;BME280;13479;49.044;8.716;2023-03-24T16:31:56;97973.19;;;15.19;62.09
25610;BME280;13479;49.044;8.716;2023-03-24T16:34:23;98011.53;;;15.26;62.17
25610;BME280;13479;49.044;8.716;2023-03-24T16:36:50;98016.97;;;15.33;61.84
25610;BME280;13479;49.044;8.716;2023-03-24T16:39:27;98041.31;;;15.38;61.41
25610;BME280;13479;49.044;8.716;2023-03-24T16:41:53;98072.75;;;15.36;61.16
25610;BME280;13479;49.044;8.716;2023-03-24T16:44:19;98080.19;;;15.40;60.57
25610;BME280;13479;49.044;8.716;2023-03-24T16:46:46;98078.38;;;15.41;60.69
25610;BME280;13479;49.044;8.716;2023-03-24T16:49:14;98084.53;;;15.41;60.44
25610;BME280;13479;49.044;8.716;2023-03-24T16:51:40;98083.97;;;15.46;60.42
25610;BME280;13479;49.044;8.716;2023-03-24T16:54:06;98099.69;;;15.34;59.84
25610;BME280;13479;49.044;8.716;2023-03-24T16:56:33;98120.50;;;15.54;58.60
25610;BME280;13479;49.044;8.716;2023-03-24T16:58:58;98122.69;;;15.65;58.03
25610;BME280;13479;49.044;8.716;2023-03-24T17:01:29;98112.47;;;15.54;58.49
25610;BME280;13479;49.044;8.716;2023-03-24T17:03:58;98106.09;;;15.55;58.54
25610;BME280;13479;49.044;8.716;2023-03-24T17:06:26;98120.03;;;15.65;57.76
25610;BME280;13479;49.044;8.716;2023-03-24T17:08:51;98105.03;;;15.34;58.15
25610;BME280;13479;49.044;8.716;2023-03-24T17:11:24;98084.75;;;15.25;58.77
25610;BME280;13479;49.044;8.716;2023-03-24T17:13:50;98039.16;;;14.96;59.38
25610;BME280;13479;49.044;8.716;2023-03-24T17:16:15;98024.03;;;14.89;59.40
25610;BME280;13479;49.044;8.716;2023-03-24T17:18:41;98010.38;;;14.69;60.00
25610;BME280;13479;49.044;8.716;2023-03-24T17:21:15;97967.97;;;14.50;60.25
25610;BME280;13479;49.044;8.716;2023-03-24T17:23:42;97940.81;;;14.32;60.98
25610;BME280;13479;49.044;8.716;2023-03-24T17:26:08;97925.50;;;14.11;61.75
25610;BME280;13479;49.044;8.716;2023-03-24T17:28:33;97937.28;;;14.01;61.70
25610;BME280;13479;49.044;8.716;2023-03-24T17:30:58;97928.59;;;13.84;62.53
25610;BME280;13479;49.044;8.716;2023-03-24T17:33:23;97934.00;;;13.76;62.31
25610;BME280;13479;49.044;8.716;2023-03-24T17:35:49;97947.69;;;13.73;62.22
25610;BME280;13479;49.044;8.716;2023-03-24T17:38:16;97942.09;;;13.59;62.88
25610;BME280;13479;49.044;8.716;2023-03-24T17:40:41;97939.38;;;13.44;63.20
25610;BME280;13479;49.044;8.716;2023-03-24T17:43:07;97937.94;;;13.34;62.97
25610;BME280;13479;49.044;8.716;2023-03-24T17:45:32;97943.63;;;13.31;63.50
25610;BME280;13479;49.044;8.716;2023-03-24T17:47:57;97944.19;;;13.18;63.88
25610;BME280;13479;49.044;8.716;2023-03-24T17:50:22;97956.34;;;13.20;63.71
25610;BME280;13479;49.044;8.716;2023-03-24T17:52:50;97961.06;;;13.10;63.83
25610;BME280;13479;49.044;8.716;2023-03-24T17:55:15;97963.72;;;13.10;64.21
25610;BME280;13479;49.044;8.716;2023-03-24T17:57:41;97977.72;;;13.04;64.39
25610;BME280;13479;49.044;8.716;2023-03-24T18:00:08;97976.72;;;13.05;64.53
25610;BME280;13479;49.044;8.716;2023-03-24T18:02:39;97997.44;;;12.94;64.66
25610;BME280;13479;49.044;8.716;2023-03-24T18:05:05;97991.78;;;12.89;65.13
25610;BME280;13479;49.044;8.716;2023-03-24T18:07:32;97996.31;;;12.80;64.91
25610;BME280;13479;49.044;8.716;2023-03-24T18:09:57;97999.13;;;12.79;64.78
25610;BME280;13479;49.044;8.716;2023-03-24T18:12:23;98016.66;;;12.65;65.27
25610;BME280;13479;49.044;8.716;2023-03-24T18:14:50;97998.88;;;12.65;65.40
25610;BME280;13479;49.044;8.716;2023-03-24T18:17:15;98007.00;;;12.64;65.38
25610;BME280;13479;49.044;8.716;2023-03-24T18:19:40;98014.84;;;12.65;65.74
25610;BME280;13479;49.044;8.716;2023-03-24T18:22:06;98025.66;;;12.64;65.63
25610;BME280;13479;49.044;8.716;2023-03-24T18:24:32;98021.16;;;12.64;65.78
25610;BME280;13479;49.044;8.716;2023-03-24T18:26:57;98037.94;;;12.73;65.98
25610;BME280;13479;49.044;8.716;2023-03-24T18:29:22;98074.38;;;12.81;65.02
25610;BME280;13479;49.044;8.716;2023-03-24T18:31:48;98090.84;;;12.93;65.02
25610;BME280;13479;49.044;8.716;2023-03-24T18:34:15;98105.97;;;12.92;64.90
25610;BME280;13479;49.044;8.716;2023-03-24T18:36:41;98111.28;;;13.01;64.79
25610;BME280;13479;49.044;8.716;2023-03-24T18:39:07;98122.59;;;13.03;64.87
25610;BME280;13479;49.044;8.716;2023-03-24T18:41:34;98137.91;;;13.01;64.58
25610;BME280;13479;49.044;8.716;2023-03-24T18:44:02;98162.06;;;12.99;64.16
25610;BME280;13479;49.044;8.716;2023-03-24T18:46:27;98164.09;;;12.89;63.77
25610;BME280;13479;49.044;8.716;2023-03-24T18:48:53;98182.91;;;12.87;63.46
25610;BME280;13479;49.044;8.716;2023-03-24T18:51:20;98173.09;;;12.71;63.67
25610;BME280;13479;49.044;8.716;2023-03-24T18:53:49;98159.78;;;12.63;64.08
25610;BME280;13479;49.044;8.716;2023-03-24T18:56:15;98147.31;;;12.55;64.23
25610;BME280;13479;49.044;8.716;2023-03-24T18:58:40;98122.50;;;12.55;64.63
25610;BME280;13479;49.044;8.716;2023-03-24T19:01:15;98112.53;;;12.40;64.61
25610;BME280;13479;49.044;8.716;2023-03-24T19:03:43;98102.03;;;12.47;64.55
25610;BME280;13479;49.044;8.716;2023-03-24T19:06:11;98092.06;;;12.41;64.91
25610;BME280;13479;49.044;8.716;2023-03-24T19:08:39;98086.09;;;12.30;65.15
25610;BME280;13479;49.044;8.716;2023-03-24T19:11:06;98078.44;;;12.27;64.75
25610;BME280;13479;49.044;8.716;2023-03-24T19:13:32;98078.44;;;12.19;65.08
25610;BME280;13479;49.044;8.716;2023-03-24T19:15:57;98081.91;;;12.19;64.80
25610;BME280;13479;49.044;8.716;2023-03-24T19:18:24;98087.91;;;12.22;64.82
25610;BME280;13479;49.044;8.716;2023-03-24T19:20:53;98104.19;;;12.18;64.51
25610;BME280;13479;49.044;8.716;2023-03-24T19:23:19;98106.53;;;12.13;64.69
25610;BME280;13479;49.044;8.716;2023-03-24T19:25:45;98145.94;;;12.34;63.70